createdAt,value
2023-04-15T00:01:07.760Z,99821.00
2023-04-15T00:03:34.522Z,99825.13
2023-04-15T00:06:02.338Z,99816.28
2023-04-15T00:08:30.054Z,99812.69
2023-04-15T00:10:56.690Z,99818.19
2023-04-15T00:13:23.546Z,99813.84
2023-04-15T00:15:51.074Z,99810.22
2023-04-15T00:18:18.610Z,99815.56
2023-04-15T00:20:45.055Z,99813.06
2023-04-15T00:23:12.604Z,99810.53
2023-04-15T00:25:39.244Z,99822.53
2023-04-15T00:28:06.220Z,99806.44
2023-04-15T00:30:32.651Z,99808.16
2023-04-15T00:32:59.405Z,99814.00
2023-04-15T00:35:25.833Z,99805.75
2023-04-15T00:37:52.554Z,99815.19
2023-04-15T00:40:21.723Z,99818.44
2023-04-15T00:42:48.646Z,99814.97
2023-04-15T00:45:15.681Z,99824.28
2023-04-15T00:47:43.807Z,99822.56
2023-04-15T00:50:12.519Z,99817.25
2023-04-15T00:52:40.918Z,99817.25
2023-04-15T00:55:08.875Z,99808.09
2023-04-15T00:57:36.403Z,99821.53
2023-04-15T01:00:05.601Z,99815.69
2023-04-15T01:02:33.458Z,99813.84
2023-04-15T01:05:00.463Z,99818.91
2023-04-15T01:07:27.047Z,99816.38
2023-04-15T01:09:53.757Z,99815.25
2023-04-15T01:12:21.119Z,99814.09
2023-04-15T01:14:47.676Z,99807.22
2023-04-15T01:17:14.468Z,99806.06
2023-04-15T01:19:41.659Z,99816.28
2023-04-15T01:22:10.038Z,99824.66
2023-04-15T01:24:36.935Z,99815.81
2023-04-15T01:27:05.224Z,99817.06
2023-04-15T01:29:38.485Z,99823.53
2023-04-15T01:32:05.647Z,99818.13
2023-04-15T01:34:35.514Z,99823.97
2023-04-15T01:37:02.746Z,99825.56
2023-04-15T01:39:29.416Z,99827.50
2023-04-15T01:41:57.213Z,99821.75
2023-04-15T01:44:23.612Z,99825.09
2023-04-15T01:46:50.196Z,99823.72
2023-04-15T01:49:16.935Z,99826.69
2023-04-15T01:51:43.734Z,99824.31
2023-04-15T01:54:10.225Z,99822.34
2023-04-15T01:56:36.853Z,99817.19
2023-04-15T01:59:03.803Z,99821.41
2023-04-15T02:01:30.408Z,99821.19
2023-04-15T02:03:57.889Z,99820.03
2023-04-15T02:06:24.639Z,99818.44
2023-04-15T02:08:51.452Z,99802.13
2023-04-15T02:11:19.659Z,99817.16
2023-04-15T02:13:46.328Z,99820.31
2023-04-15T02:16:17.735Z,99826.78
2023-04-15T02:18:47.424Z,99829.19
2023-04-15T02:21:14.588Z,99821.13
2023-04-15T02:23:41.098Z,99822.50
2023-04-15T02:26:08.123Z,99838.38
2023-04-15T02:28:35.023Z,99829.19
2023-04-15T02:31:09.479Z,99823.41
2023-04-15T02:33:36.934Z,99825.25
2023-04-15T02:36:03.980Z,99826.59
2023-04-15T02:38:31.884Z,99832.63
2023-04-15T02:40:58.361Z,99827.06
2023-04-15T02:43:24.843Z,99830.47
2023-04-15T02:45:52.160Z,99831.59
2023-04-15T02:48:20.259Z,99834.16
2023-04-15T02:50:48.315Z,99843.47
2023-04-15T02:53:14.803Z,99841.94
2023-04-15T02:55:42.784Z,99834.25
2023-04-15T02:58:09.618Z,99836.59
2023-04-15T03:00:36.176Z,99838.56
2023-04-15T03:03:05.961Z,99841.06
2023-04-15T03:05:32.873Z,99841.19
2023-04-15T03:08:01.024Z,99839.13
2023-04-15T03:10:27.752Z,99835.81
2023-04-15T03:12:54.600Z,99849.97
2023-04-15T03:15:21.253Z,99842.28
2023-04-15T03:17:49.638Z,99843.47
2023-04-15T03:20:17.163Z,99834.69
2023-04-15T03:22:44.299Z,99832.41
2023-04-15T03:25:10.775Z,99841.81
2023-04-15T03:27:38.802Z,99841.28
2023-04-15T03:30:07.564Z,99842.16
2023-04-15T03:32:34.573Z,99849.59
2023-04-15T03:35:01.525Z,99849.72
2023-04-15T03:37:28.098Z,99850.22
2023-04-15T03:39:54.735Z,99843.41
2023-04-15T03:42:21.254Z,99852.88
2023-04-15T03:44:47.768Z,99855.91
2023-04-15T03:47:14.266Z,99860.41
2023-04-15T03:49:41.373Z,99857.66
2023-04-15T03:52:07.723Z,99859.09
2023-04-15T03:54:34.355Z,99859.09
2023-04-15T03:57:01.399Z,99862.34
2023-04-15T03:59:28.372Z,99858.84
2023-04-15T04:01:54.934Z,99855.44
2023-04-15T04:04:21.676Z,99854.53
2023-04-15T04:06:48.141Z,99861.25
2023-04-15T04:09:14.995Z,99859.19
2023-04-15T04:11:41.770Z,99855.44
2023-04-15T04:14:08.291Z,99858.47
2023-04-15T04:16:35.086Z,99859.31
2023-04-15T04:19:01.997Z,99859.63
2023-04-15T04:21:29.142Z,99863.38
2023-04-15T04:23:56.665Z,99866.81
2023-04-15T04:26:23.107Z,99879.88
2023-04-15T04:28:49.500Z,99872.59
2023-04-15T04:31:16.095Z,99872.41
2023-04-15T04:33:43.501Z,99866.00
2023-04-15T04:36:10.525Z,99873.53
2023-04-15T04:38:37.636Z,99878.00
2023-04-15T04:41:04.225Z,99876.00
2023-04-15T04:43:31.000Z,99883.59
2023-04-15T04:45:57.596Z,99874.06
2023-04-15T04:48:24.360Z,99889.28
2023-04-15T04:50:51.356Z,99886.19
2023-04-15T04:53:18.162Z,99886.19
2023-04-15T04:55:44.720Z,99887.09
2023-04-15T04:58:11.592Z,99885.94
2023-04-15T05:00:38.453Z,99889.97
2023-04-15T05:03:05.684Z,99885.47
2023-04-15T05:05:32.332Z,99898.63
2023-04-15T05:07:59.350Z,99892.44
2023-04-15T05:10:26.217Z,99900.44
2023-04-15T05:12:53.049Z,99893.72
2023-04-15T05:15:19.965Z,99893.84
2023-04-15T05:17:46.594Z,99895.53
2023-04-15T05:20:14.317Z,99895.03
2023-04-15T05:22:41.594Z,99898.78
2023-04-15T05:25:09.274Z,99905.81
2023-04-15T05:27:36.676Z,99908.72
2023-04-15T05:30:03.588Z,99904.66
2023-04-15T05:32:30.005Z,99918.72
2023-04-15T05:34:56.771Z,99911.75
2023-04-15T05:37:24.937Z,99915.91
2023-04-15T05:39:52.019Z,99919.59
2023-04-15T05:42:18.367Z,99918.63
2023-04-15T05:44:45.650Z,99919.28
2023-04-15T05:47:14.199Z,99929.66
2023-04-15T05:49:41.274Z,99927.78
2023-04-15T05:52:08.224Z,99932.72
2023-04-15T05:54:35.141Z,99941.44
2023-04-15T05:57:01.711Z,99935.78
2023-04-15T05:59:28.612Z,99940.63
2023-04-15T06:01:55.360Z,99946.75
2023-04-15T06:04:22.826Z,99948.94
2023-04-15T06:06:50.210Z,99944.53
2023-04-15T06:09:17.707Z,99951.84
2023-04-15T06:11:44.281Z,99945.25
2023-04-15T06:14:11.159Z,99949.72
2023-04-15T06:16:37.864Z,99949.25
2023-04-15T06:19:05.083Z,99966.84
2023-04-15T06:21:31.854Z,99959.41
2023-04-15T06:23:59.912Z,99955.59
2023-04-15T06:26:26.572Z,99959.53
2023-04-15T06:28:53.255Z,99961.34
2023-04-15T06:31:19.685Z,99964.50
2023-04-15T06:33:46.602Z,99956.06
2023-04-15T06:36:13.615Z,99960.66
2023-04-15T06:38:40.128Z,99962.00
2023-04-15T06:41:06.765Z,99959.31
2023-04-15T06:43:33.309Z,99961.19
2023-04-15T06:45:59.915Z,99960.31
2023-04-15T06:48:27.544Z,99981.34
2023-04-15T06:50:54.950Z,99976.81
2023-04-15T06:53:22.083Z,99976.94
2023-04-15T06:55:49.539Z,99966.91
2023-04-15T06:58:16.218Z,99972.28
2023-04-15T07:00:42.892Z,99983.13
2023-04-15T07:03:11.161Z,99981.91
2023-04-15T07:05:38.460Z,99984.34
2023-04-15T07:08:05.386Z,99990.69
2023-04-15T07:10:32.589Z,99984.19
2023-04-15T07:12:59.653Z,99985.03
2023-04-15T07:15:26.099Z,99985.75
2023-04-15T07:17:54.357Z,99989.75
2023-04-15T07:20:21.976Z,99973.56
2023-04-15T07:22:48.911Z,99985.84
2023-04-15T07:25:15.804Z,99986.47
2023-04-15T07:27:42.454Z,99989.41
2023-04-15T07:30:09.807Z,99983.66
2023-04-15T07:32:36.972Z,99990.63
2023-04-15T07:35:04.258Z,99985.38
2023-04-15T07:37:30.786Z,99994.63
2023-04-15T07:39:58.858Z,100001.75
2023-04-15T07:42:25.525Z,100008.06
2023-04-15T07:44:52.013Z,99996.78
2023-04-15T07:47:18.826Z,100010.13
2023-04-15T07:49:46.295Z,100008.81
2023-04-15T07:52:12.950Z,100006.50
2023-04-15T07:54:39.793Z,100010.03
2023-04-15T07:57:06.540Z,100013.56
2023-04-15T07:59:33.546Z,100008.47
2023-04-15T08:02:01.690Z,100011.69
2023-04-15T08:04:28.660Z,100005.38
2023-04-15T08:06:55.306Z,100007.41
2023-04-15T08:09:21.965Z,100005.78
2023-04-15T08:11:50.700Z,100006.59
2023-04-15T08:14:18.017Z,100000.94
2023-04-15T08:16:44.556Z,100011.31
2023-04-15T08:19:11.298Z,100004.16
2023-04-15T08:21:38.598Z,100012.03
2023-04-15T08:24:05.804Z,100023.22
2023-04-15T08:26:32.589Z,100021.72
2023-04-15T08:28:59.463Z,100024.16
2023-04-15T08:31:28.939Z,100023.69
2023-04-15T08:33:57.607Z,100020.97
2023-04-15T08:36:24.110Z,100016.63
2023-04-15T08:38:51.155Z,100020.19
2023-04-15T08:41:25.674Z,100029.66
2023-04-15T08:44:01.974Z,100020.56
2023-04-15T08:46:31.971Z,100028.59
2023-04-15T08:48:59.148Z,100022.59
2023-04-15T08:51:27.225Z,100026.19
2023-04-15T08:53:54.819Z,100034.59
2023-04-15T08:56:26.697Z,100033.75
2023-04-15T08:58:53.923Z,100042.91
2023-04-15T09:01:20.984Z,100039.63
2023-04-15T09:03:50.293Z,100053.91
2023-04-15T09:06:18.141Z,100048.63
2023-04-15T09:08:45.741Z,100047.63
2023-04-15T09:11:12.490Z,100060.66
2023-04-15T09:13:39.839Z,100060.41
2023-04-15T09:16:08.091Z,100054.84
2023-04-15T09:18:36.281Z,100059.22
2023-04-15T09:21:08.793Z,100065.88
2023-04-15T09:23:36.150Z,100053.25
2023-04-15T09:26:03.704Z,100072.63
2023-04-15T09:28:31.104Z,100079.44
2023-04-15T09:30:59.339Z,100077.09
2023-04-15T09:33:28.041Z,100078.34
2023-04-15T09:35:59.290Z,100077.38
2023-04-15T09:38:26.157Z,100061.59
2023-04-15T09:40:55.852Z,100092.59
2023-04-15T09:43:22.909Z,100078.53
2023-04-15T09:45:52.368Z,100086.41
2023-04-15T09:48:28.931Z,100091.31
2023-04-15T09:50:58.985Z,100092.53
2023-04-15T09:53:29.834Z,100085.09
2023-04-15T09:56:02.838Z,100090.59
2023-04-15T09:58:31.867Z,100087.91
2023-04-15T10:01:00.114Z,100096.09
2023-04-15T10:03:30.125Z,100094.97
2023-04-15T10:05:59.306Z,100088.72
2023-04-15T10:08:33.608Z,100085.94
2023-04-15T10:11:02.520Z,100088.69
2023-04-15T10:13:36.974Z,100087.47
2023-04-15T10:16:16.893Z,100083.50
2023-04-15T10:18:46.157Z,100086.22
2023-04-15T10:21:18.510Z,100092.09
2023-04-15T10:23:46.006Z,100087.44
2023-04-15T10:26:14.741Z,100089.34
2023-04-15T10:28:42.088Z,100083.03
2023-04-15T10:31:11.689Z,100089.75
2023-04-15T10:33:39.780Z,100087.84
2023-04-15T10:36:07.927Z,100095.47
2023-04-15T10:38:45.941Z,100094.88
2023-04-15T10:41:27.954Z,100100.31
2023-04-15T10:43:57.719Z,100101.59
2023-04-15T10:46:36.971Z,100096.22
2023-04-15T10:49:15.120Z,100090.50
2023-04-15T10:51:47.292Z,100092.19
2023-04-15T10:54:18.520Z,100104.91
2023-04-15T10:56:46.007Z,100103.50
2023-04-15T10:59:12.604Z,100096.09
2023-04-15T11:01:57.403Z,100094.97
2023-04-15T11:04:43.153Z,100105.84
2023-04-15T11:07:10.910Z,100110.25
2023-04-15T11:09:37.520Z,100099.03
2023-04-15T11:12:10.550Z,100114.25
2023-04-15T11:14:41.943Z,100113.31
2023-04-15T11:17:09.664Z,100114.84
2023-04-15T11:19:39.462Z,100129.53
2023-04-15T11:22:10.166Z,100128.50
2023-04-15T11:24:37.104Z,100137.22
2023-04-15T11:27:03.796Z,100122.31
2023-04-15T11:29:32.133Z,100141.66
2023-04-15T11:32:06.298Z,100137.22
2023-04-15T11:34:34.996Z,100138.53
2023-04-15T11:37:06.701Z,100152.88
2023-04-15T11:39:33.610Z,100154.75
2023-04-15T11:42:01.797Z,100167.81
2023-04-15T11:44:28.515Z,100166.53
2023-04-15T11:46:56.593Z,100162.47
2023-04-15T11:49:31.218Z,100170.66
2023-04-15T11:51:58.008Z,100166.69
2023-04-15T11:54:25.084Z,100189.19
2023-04-15T11:56:52.470Z,100192.56
2023-04-15T11:59:18.970Z,100199.91
2023-04-15T12:01:47.640Z,100192.81
2023-04-15T12:04:18.330Z,100196.81
2023-04-15T12:06:46.152Z,100204.84
2023-04-15T12:09:14.318Z,100212.03
2023-04-15T12:11:51.313Z,100208.81
2023-04-15T12:14:31.223Z,100207.63
2023-04-15T12:17:00.546Z,100222.44
2023-04-15T12:19:43.019Z,100224.84
2023-04-15T12:22:11.711Z,100220.03
2023-04-15T12:24:39.434Z,100244.84
2023-04-15T12:27:12.424Z,100238.44
2023-04-15T12:29:40.547Z,100236.06
2023-04-15T12:32:08.521Z,100250.44
2023-04-15T12:34:39.173Z,100259.59
2023-04-15T12:37:09.406Z,100255.94
2023-04-15T12:39:38.027Z,100256.75
2023-04-15T12:42:06.069Z,100269.50
2023-04-15T12:44:33.478Z,100277.44
2023-04-15T12:47:00.472Z,100270.97
2023-04-15T12:49:28.374Z,100285.78
2023-04-15T12:51:57.822Z,100284.59
2023-04-15T12:54:24.354Z,100299.75
2023-04-15T12:56:51.597Z,100303.81
2023-04-15T12:59:19.968Z,100308.94
2023-04-15T13:01:48.799Z,100313.28
2023-04-15T13:04:17.043Z,100314.84
2023-04-15T13:06:44.040Z,100311.59
2023-04-15T13:09:10.771Z,100313.63
2023-04-15T13:11:37.560Z,100314.19
2023-04-15T13:14:06.376Z,100321.38
2023-04-15T13:16:34.831Z,100324.56
2023-04-15T13:19:02.629Z,100322.09
2023-04-15T13:21:29.325Z,100334.28
2023-04-15T13:23:57.240Z,100327.53
2023-04-15T13:26:24.070Z,100336.00
2023-04-15T13:28:51.149Z,100333.50
2023-04-15T13:31:18.327Z,100337.41
2023-04-15T13:33:45.478Z,100340.22
2023-04-15T13:36:12.266Z,100341.56
2023-04-15T13:38:38.841Z,100340.28
2023-04-15T13:41:05.531Z,100343.25
2023-04-15T13:43:34.216Z,100358.00
2023-04-15T13:46:01.795Z,100355.16
2023-04-15T13:48:28.839Z,100368.31
2023-04-15T13:50:55.732Z,100372.53
2023-04-15T13:53:33.964Z,100367.81
2023-04-15T13:56:08.855Z,100363.69
2023-04-15T13:58:38.116Z,100374.59
2023-04-15T14:01:06.772Z,100371.28
2023-04-15T14:03:37.623Z,100382.19
2023-04-15T14:06:06.039Z,100391.38
2023-04-15T14:08:33.322Z,100390.13
2023-04-15T14:10:59.997Z,100393.44
2023-04-15T14:13:26.768Z,100405.94
2023-04-15T14:15:53.392Z,100401.44
2023-04-15T14:18:20.583Z,100406.03
2023-04-15T14:20:49.151Z,100410.75
2023-04-15T14:23:16.626Z,100402.41
2023-04-15T14:25:44.183Z,100409.56
2023-04-15T14:28:12.401Z,100409.69
2023-04-15T14:30:39.493Z,100410.66
2023-04-15T14:33:06.146Z,100406.69
2023-04-15T14:35:33.236Z,100407.78
2023-04-15T14:37:59.900Z,100417.09
2023-04-15T14:40:26.698Z,100417.50
2023-04-15T14:42:53.675Z,100424.06
2023-04-15T14:45:20.425Z,100433.63
2023-04-15T14:47:47.516Z,100431.63
2023-04-15T14:50:14.496Z,100435.25
2023-04-15T14:52:41.671Z,100451.44
2023-04-15T14:55:12.529Z,100446.97
2023-04-15T14:57:40.435Z,100449.66
2023-04-15T15:00:10.024Z,100449.66
2023-04-15T15:02:40.481Z,100449.25
2023-04-15T15:05:09.708Z,100449.53
2023-04-15T15:07:37.988Z,100458.97
2023-04-15T15:10:06.022Z,100468.59
2023-04-15T15:12:33.634Z,100469.97
2023-04-15T15:15:01.599Z,100475.56
2023-04-15T15:17:29.886Z,100477.22
2023-04-15T15:19:56.603Z,100474.38
2023-04-15T15:22:24.567Z,100476.84
2023-04-15T15:24:51.208Z,100484.03
2023-04-15T15:27:18.068Z,100484.47
2023-04-15T15:29:44.718Z,100488.69
2023-04-15T15:32:11.355Z,100486.00
2023-04-15T15:34:38.020Z,100494.91
2023-04-15T15:37:04.663Z,100494.78
2023-04-15T15:39:31.252Z,100500.59
2023-04-15T15:41:57.811Z,100494.91
2023-04-15T15:44:24.713Z,100507.22
2023-04-15T15:46:51.308Z,100509.38
2023-04-15T15:49:18.227Z,100514.50
2023-04-15T15:51:45.773Z,100522.56
2023-04-15T15:54:12.497Z,100521.69
2023-04-15T15:56:39.527Z,100526.53
2023-04-15T15:59:06.700Z,100523.25
2023-04-15T16:01:33.642Z,100527.09
2023-04-15T16:04:00.819Z,100531.50
2023-04-15T16:06:28.110Z,100536.06
2023-04-15T16:08:54.871Z,100540.53
2023-04-15T16:11:21.347Z,100542.19
2023-04-15T16:13:48.440Z,100535.94
2023-04-15T16:16:15.206Z,100545.16
2023-04-15T16:18:42.445Z,100539.03
2023-04-15T16:21:09.036Z,100559.72
2023-04-15T16:23:36.784Z,100549.38
2023-04-15T16:26:04.909Z,100556.69
2023-04-15T16:28:31.803Z,100562.31
2023-04-15T16:30:58.667Z,100558.59
2023-04-15T16:33:25.456Z,100561.56
2023-04-15T16:35:53.414Z,100571.22
2023-04-15T16:38:20.758Z,100571.97
2023-04-15T16:40:47.402Z,100573.81
2023-04-15T16:43:15.931Z,100577.63
2023-04-15T16:45:44.433Z,100588.31
2023-04-15T16:48:10.970Z,100585.91
2023-04-15T16:50:37.711Z,100591.75
2023-04-15T16:53:04.739Z,100589.78
2023-04-15T16:55:31.280Z,100591.34
2023-04-15T16:58:02.473Z,100593.84
2023-04-15T17:00:31.370Z,100601.31
2023-04-15T17:03:00.071Z,100595.75
2023-04-15T17:05:27.556Z,100604.09
2023-04-15T17:07:54.699Z,100600.88
2023-04-15T17:10:21.217Z,100603.72
2023-04-15T17:12:48.167Z,100609.97
2023-04-15T17:15:14.744Z,100612.34
2023-04-15T17:17:41.657Z,100620.66
2023-04-15T17:20:09.443Z,100619.13
2023-04-15T17:22:36.512Z,100636.25
2023-04-15T17:25:04.569Z,100629.00
2023-04-15T17:27:31.246Z,100632.59
2023-04-15T17:29:58.013Z,100633.34
2023-04-15T17:32:26.398Z,100637.63
2023-04-15T17:34:53.014Z,100638.00
2023-04-15T17:37:19.541Z,100639.19
2023-04-15T17:39:46.441Z,100647.00
2023-04-15T17:42:13.647Z,100649.81
2023-04-15T17:44:40.154Z,100653.75
2023-04-15T17:47:07.965Z,100654.75
2023-04-15T17:49:37.628Z,100655.66
2023-04-15T17:52:04.608Z,100668.66
2023-04-15T17:54:31.136Z,100671.88
2023-04-15T17:56:59.234Z,100668.97
2023-04-15T17:59:27.565Z,100665.72
2023-04-15T18:01:55.707Z,100674.81
2023-04-15T18:04:26.355Z,100674.28
2023-04-15T18:06:53.568Z,100684.16
2023-04-15T18:09:21.625Z,100683.72
2023-04-15T18:11:49.415Z,100679.38
2023-04-15T18:14:27.058Z,100685.03
2023-04-15T18:17:00.720Z,100682.53
2023-04-15T18:19:27.705Z,100684.94
2023-04-15T18:21:55.061Z,100692.22
2023-04-15T18:24:22.548Z,100695.44
2023-04-15T18:26:49.565Z,100704.78
2023-04-15T18:29:18.186Z,100703.34
2023-04-15T18:31:45.234Z,100713.31
2023-04-15T18:34:11.870Z,100712.84
2023-04-15T18:36:38.949Z,100720.78
2023-04-15T18:39:05.713Z,100727.56
2023-04-15T18:41:32.289Z,100731.91
2023-04-15T18:43:58.971Z,100729.53
2023-04-15T18:46:25.799Z,100735.31
2023-04-15T18:48:52.809Z,100738.00
2023-04-15T18:51:19.643Z,100743.56
2023-04-15T18:53:46.470Z,100747.31
2023-04-15T18:56:13.520Z,100753.34
2023-04-15T18:59:19.001Z,100762.78
2023-04-15T19:01:26.775Z,100774.06
2023-04-15T19:03:53.551Z,100781.84
2023-04-15T19:06:22.275Z,100783.19
2023-04-15T19:08:49.365Z,100781.47
2023-04-15T19:11:16.051Z,100787.38
2023-04-15T19:13:43.380Z,100786.00
2023-04-15T19:16:10.123Z,100792.63
2023-04-15T19:18:36.829Z,100797.72
2023-04-15T19:21:03.988Z,100789.03
2023-04-15T19:23:31.779Z,100800.41
2023-04-15T19:25:59.135Z,100803.19
2023-04-15T19:28:28.068Z,100805.16
2023-04-15T19:30:55.061Z,100812.50
2023-04-15T19:33:21.986Z,100808.66
2023-04-15T19:35:50.127Z,100811.78
2023-04-15T19:38:17.216Z,100814.31
2023-04-15T19:40:44.129Z,100822.09
2023-04-15T19:43:10.814Z,100824.44
2023-04-15T19:45:37.572Z,100827.56
2023-04-15T19:48:06.086Z,100827.56
2023-04-15T19:50:32.768Z,100821.53
2023-04-15T19:52:59.595Z,100830.09
2023-04-15T19:55:26.335Z,100829.75
2023-04-15T19:57:53.140Z,100833.50
2023-04-15T20:00:20.027Z,100828.50
2023-04-15T20:02:46.650Z,100843.94
2023-04-15T20:05:14.098Z,100840.22
2023-04-15T20:07:42.475Z,100836.53
2023-04-15T20:10:13.051Z,100843.56
2023-04-15T20:12:51.301Z,100848.22
2023-04-15T20:15:21.438Z,100845.78
2023-04-15T20:17:48.013Z,100851.25
2023-04-15T20:20:16.173Z,100846.25
2023-04-15T20:22:43.220Z,100852.72
2023-04-15T20:25:10.402Z,100857.16
2023-04-15T20:27:37.206Z,100860.50
2023-04-15T20:30:05.062Z,100855.16
2023-04-15T20:32:35.244Z,100867.78
2023-04-15T20:35:03.775Z,100866.06
2023-04-15T20:37:33.245Z,100855.84
2023-04-15T20:40:00.697Z,100866.06
2023-04-15T20:42:28.014Z,100865.06
2023-04-15T20:44:54.578Z,100872.25
2023-04-15T20:47:21.274Z,100865.97
2023-04-15T20:49:48.321Z,100866.69
2023-04-15T20:52:15.049Z,100873.63
2023-04-15T20:54:42.074Z,100878.97
2023-04-15T20:57:08.976Z,100884.38
2023-04-15T20:59:36.019Z,100886.25
2023-04-15T21:02:02.732Z,100880.59
2023-04-15T21:04:29.979Z,100887.94
2023-04-15T21:06:56.765Z,100884.78
2023-04-15T21:09:24.338Z,100885.84
2023-04-15T21:14:22.613Z,100888.38
2023-04-15T21:16:49.183Z,100896.34
2023-04-15T21:19:15.981Z,100895.75
2023-04-15T21:21:43.252Z,100902.59
2023-04-15T21:24:11.752Z,100902.84
2023-04-15T21:26:38.456Z,100904.69
2023-04-15T21:29:06.598Z,100903.53
2023-04-15T21:31:35.657Z,100911.31
2023-04-15T21:34:02.194Z,100907.47
2023-04-15T21:36:28.851Z,100909.69
2023-04-15T21:38:55.985Z,100918.25
2023-04-15T21:41:23.438Z,100910.59
2023-04-15T21:43:50.267Z,100914.53
2023-04-15T21:46:21.985Z,100920.66
2023-04-15T21:48:51.468Z,100924.59
2023-04-15T21:51:18.466Z,100930.84
2023-04-15T21:53:46.584Z,100932.00
2023-04-15T21:56:14.199Z,100934.53
2023-04-15T21:58:40.841Z,100929.91
2023-04-15T22:01:07.995Z,100936.88
2023-04-15T22:03:37.400Z,100947.44
2023-04-15T22:06:05.383Z,100950.06
2023-04-15T22:08:38.668Z,100950.06
2023-04-15T22:11:09.110Z,100946.63
2023-04-15T22:13:39.106Z,100941.88
2023-04-15T22:16:07.063Z,100959.44
2023-04-15T22:18:34.705Z,100962.59
2023-04-15T22:21:02.110Z,100970.69
2023-04-15T22:23:28.861Z,100957.28
2023-04-15T22:25:55.589Z,100961.41
2023-04-15T22:28:22.203Z,100970.34
2023-04-15T22:30:48.776Z,100969.53
2023-04-15T22:33:15.504Z,100965.94
2023-04-15T22:35:42.073Z,100972.75
2023-04-15T22:38:08.663Z,100976.72
2023-04-15T22:40:35.338Z,100979.13
2023-04-15T22:43:02.160Z,100979.28
2023-04-15T22:45:29.472Z,100979.38
2023-04-15T22:47:56.367Z,100988.41
2023-04-15T22:50:23.131Z,100987.34
2023-04-15T22:52:49.912Z,100990.63
2023-04-15T22:55:17.169Z,100996.16
2023-04-15T22:57:44.422Z,100994.53
2023-04-15T23:00:11.389Z,100991.50
2023-04-15T23:02:38.474Z,100990.59
2023-04-15T23:05:11.407Z,101001.59
2023-04-15T23:07:40.108Z,100996.03
2023-04-15T23:10:08.683Z,100995.00
2023-04-15T23:12:35.527Z,100998.34
2023-04-15T23:15:03.432Z,101005.53
2023-04-15T23:17:30.699Z,100997.06
2023-04-15T23:19:57.285Z,101006.66
2023-04-15T23:22:24.858Z,100999.03
2023-04-15T23:24:51.465Z,101005.53
2023-04-15T23:27:19.068Z,100999.84
2023-04-15T23:29:46.012Z,100998.34
2023-04-15T23:32:12.666Z,101009.59
2023-04-15T23:34:39.228Z,101006.56
2023-04-15T23:37:05.846Z,101005.75
2023-04-15T23:39:32.475Z,100997.06
2023-04-15T23:41:59.604Z,101010.47
2023-04-15T23:44:27.596Z,101008.75
2023-04-15T23:46:54.109Z,101016.03
2023-04-15T23:49:20.803Z,101009.31
2023-04-15T23:51:47.575Z,101003.41
2023-04-15T23:54:14.842Z,101009.91
2023-04-15T23:56:41.385Z,101005.72
2023-04-15T23:59:09.231Z,100998.69
